Time;durP1;ratioP1;P1;durP2;ratioP2;P2;SDS_P1;SDS_P2;PMS_P1;PMS_P2;Temp;Humidity;BMP_temperature;BMP_pressure;BME280_temperature;BME280_humidity;BME280_pressure;Samples;Min_cycle;Max_cycle;Signal;HPM_P1;HPM_P2
2023/02/20 00:01:26;;;;;;;3.77;3.47;;;;;;;;;;4984284;28;20704;-87
2023/02/20 00:03:52;;;;;;;4.00;3.37;;;;;;;;;;5000079;28;20231;-87
2023/02/20 00:06:17;;;;;;;4.73;3.37;;;;;;;;;;4983090;28;20235;-87
2023/02/20 00:08:43;;;;;;;3.87;3.27;;;;;;;;;;4988404;28;20227;-86
2023/02/20 00:11:08;;;;;;;3.30;3.10;;;;;;;;;;4985345;28;21162;-86
2023/02/20 00:13:36;;;;;;;3.17;2.97;;;;;;;;;;5016963;28;20267;-87
2023/02/20 00:16:04;;;;;;;3.33;3.03;;;;;;;;;;4983321;28;20227;-88
2023/02/20 00:18:32;;;;;;;3.27;2.97;;;;;;;;;;4984715;28;20287;-86
2023/02/20 00:21:00;;;;;;;2.90;2.67;;;;;;;;;;5000705;28;20216;-87
2023/02/20 00:23:28;;;;;;;3.43;2.87;;;;;;;;;;5007220;28;20214;-85
2023/02/20 00:25:56;;;;;;;2.97;2.70;;;;;;;;;;4983754;28;20232;-88
2023/02/20 00:28:25;;;;;;;4.43;3.03;;;;;;;;;;4982618;28;20216;-87
2023/02/20 00:30:53;;;;;;;2.97;2.67;;;;;;;;;;4967623;28;20230;-88
2023/02/20 00:33:18;;;;;;;5.73;2.80;;;;;;;;;;5000917;28;20222;-87
2023/02/20 00:35:47;;;;;;;3.93;3.13;;;;;;;;;;5014307;28;20707;-87
2023/02/20 00:38:13;;;;;;;3.10;2.80;;;;;;;;;;4984486;28;20224;-88
2023/02/20 00:40:41;;;;;;;2.80;2.60;;;;;;;;;;4983436;28;20220;-86
2023/02/20 00:43:08;;;;;;;2.93;2.73;;;;;;;;;;4984338;28;20215;-87
2023/02/20 00:45:34;;;;;;;3.63;2.80;;;;;;;;;;4998680;28;20244;-87
2023/02/20 00:48:00;;;;;;;3.70;2.50;;;;;;;;;;4987818;28;20216;-87
2023/02/20 00:50:25;;;;;;;6.33;2.80;;;;;;;;;;4985633;28;20212;-87
2023/02/20 00:52:55;;;;;;;2.97;2.50;;;;;;;;;;4991373;28;20296;-85
2023/02/20 00:55:23;;;;;;;2.50;2.30;;;;;;;;;;4999688;28;20232;-87
2023/02/20 00:57:49;;;;;;;2.90;2.60;;;;;;;;;;4987065;28;20865;-87
2023/02/20 01:00:24;;;;;;;2.83;2.40;;;;;;;;;;5014735;28;20243;-86
2023/02/20 01:02:50;;;;;;;2.93;2.40;;;;;;;;;;4998186;28;20203;-89
2023/02/20 01:05:18;;;;;;;2.90;2.57;;;;;;;;;;5011273;28;20224;-86
2023/02/20 01:07:45;;;;;;;2.87;2.40;;;;;;;;;;4977880;28;20266;-86
2023/02/20 01:10:13;;;;;;;3.23;2.40;;;;;;;;;;4987409;28;20275;-87
2023/02/20 01:12:39;;;;;;;4.10;2.27;;;;;;;;;;4989223;28;20696;-86
2023/02/20 01:15:05;;;;;;;2.47;2.27;;;;;;;;;;4998120;28;20300;-88
2023/02/20 01:17:31;;;;;;;3.37;2.73;;;;;;;;;;4999118;28;20250;-85
2023/02/20 01:19:56;;;;;;;4.50;2.30;;;;;;;;;;4967371;28;20204;-85
2023/02/20 01:22:25;;;;;;;2.40;2.20;;;;;;;;;;4974670;28;21303;-85
2023/02/20 01:24:53;;;;;;;3.57;2.67;;;;;;;;;;4987577;28;20315;-87
2023/02/20 01:27:18;;;;;;;2.73;2.53;;;;;;;;;;4983441;28;20224;-87
2023/02/20 01:29:44;;;;;;;3.03;2.63;;;;;;;;;;5009033;28;20231;-86
2023/02/20 01:32:12;;;;;;;2.60;2.40;;;;;;;;;;4984649;28;20246;-87
2023/02/20 01:34:40;;;;;;;3.93;2.57;;;;;;;;;;4983686;28;20355;-84
2023/02/20 01:37:12;;;;;;;3.13;2.70;;;;;;;;;;4983567;28;20213;-86
2023/02/20 01:39:37;;;;;;;3.23;2.43;;;;;;;;;;4998413;28;20227;-86
2023/02/20 01:42:05;;;;;;;3.93;2.77;;;;;;;;;;4996184;28;20220;-82
2023/02/20 01:44:34;;;;;;;2.67;2.47;;;;;;;;;;4996512;28;20219;-86
2023/02/20 01:47:06;;;;;;;3.20;2.93;;;;;;;;;;4992899;28;20224;-86
2023/02/20 01:49:47;;;;;;;4.53;3.00;;;;;;;;;;4995557;28;20231;-85
2023/02/20 01:52:23;;;;;;;3.27;2.97;;;;;;;;;;5001515;28;20692;-86
2023/02/20 01:54:59;;;;;;;3.87;3.50;;;;;;;;;;5004136;28;20208;-84
2023/02/20 01:57:30;;;;;;;4.30;3.27;;;;;;;;;;5034291;28;20278;-85
2023/02/20 02:00:08;;;;;;;3.97;3.57;;;;;;;;;;5004463;28;20774;-85
2023/02/20 02:02:44;;;;;;;3.50;3.20;;;;;;;;;;5016914;28;20282;-87
2023/02/20 02:05:09;;;;;;;3.83;3.57;;;;;;;;;;5022578;28;20251;-85
2023/02/20 02:07:35;;;;;;;5.97;3.63;;;;;;;;;;4978589;28;20224;-85
2023/02/20 02:10:08;;;;;;;5.27;3.50;;;;;;;;;;4994736;28;20212;-86
2023/02/20 02:12:34;;;;;;;4.53;4.13;;;;;;;;;;4986175;28;20224;-87
2023/02/20 02:15:03;;;;;;;4.57;4.20;;;;;;;;;;5000765;28;20213;-85
2023/02/20 02:18:06;;;;;;;4.80;4.30;;;;;;;;;;4984680;28;20235;-86
2023/02/20 02:21:02;;;;;;;4.50;4.10;;;;;;;;;;5024391;28;20224;-85
2023/02/20 02:23:36;;;;;;;4.77;4.47;;;;;;;;;;5034203;28;20684;-88
2023/02/20 02:26:41;;;;;;;5.03;4.50;;;;;;;;;;5018198;28;20224;-85
2023/02/20 02:29:38;;;;;;;4.93;4.53;;;;;;;;;;5048796;28;20358;-87
2023/02/20 02:32:08;;;;;;;4.80;4.50;;;;;;;;;;5028710;28;20289;-87
2023/02/20 02:34:58;;;;;;;5.43;4.73;;;;;;;;;;5026900;28;20234;-87
2023/02/20 02:37:57;;;;;;;5.63;5.03;;;;;;;;;;5025467;28;20242;-86
2023/02/20 02:40:29;;;;;;;4.60;4.20;;;;;;;;;;5000245;28;20306;-87
2023/02/20 02:43:09;;;;;;;5.20;4.70;;;;;;;;;;5000532;28;20250;-88
2023/02/20 02:45:42;;;;;;;5.30;4.90;;;;;;;;;;5005137;28;20234;-85
2023/02/20 02:48:15;;;;;;;4.97;4.57;;;;;;;;;;5018210;28;20285;-85
2023/02/20 02:50:42;;;;;;;5.10;4.70;;;;;;;;;;5006126;28;20236;-86
2023/02/20 02:53:08;;;;;;;5.27;4.83;;;;;;;;;;4999789;28;20247;-86
2023/02/20 02:55:33;;;;;;;5.33;4.93;;;;;;;;;;4982961;28;20232;-87
2023/02/20 02:58:04;;;;;;;5.30;4.80;;;;;;;;;;5001336;28;20247;-87
2023/02/20 03:00:58;;;;;;;5.17;4.77;;;;;;;;;;5017784;28;20226;-86
2023/02/20 03:03:34;;;;;;;5.37;4.90;;;;;;;;;;4988099;28;20633;-88
2023/02/20 03:06:13;;;;;;;5.07;4.67;;;;;;;;;;4994712;28;20221;-88
2023/02/20 03:08:45;;;;;;;5.50;5.00;;;;;;;;;;4986932;28;20224;-89
2023/02/20 03:11:19;;;;;;;5.37;4.97;;;;;;;;;;5010260;28;20223;-87
2023/02/20 03:16:54;;;;;;;5.30;4.90;;;;;;;;;;5009725;28;20224;-86
2023/02/20 03:19:50;;;;;;;5.50;5.10;;;;;;;;;;5017573;28;20224;-89
2023/02/20 03:22:30;;;;;;;6.13;5.53;;;;;;;;;;4975605;28;20566;-87
2023/02/20 03:25:00;;;;;;;7.03;5.30;;;;;;;;;;5000222;28;20365;-85
2023/02/20 03:27:53;;;;;;;5.10;4.70;;;;;;;;;;5002455;28;20656;-86
2023/02/20 03:30:29;;;;;;;6.53;5.83;;;;;;;;;;5001497;28;20335;-88
2023/02/20 03:43:59;;;;;;;4.97;4.53;;;;;;;;;;4986887;28;20224;-88
2023/02/20 03:46:25;;;;;;;5.33;4.83;;;;;;;;;;4986877;28;20224;-85
2023/02/20 03:48:52;;;;;;;8.77;5.30;;;;;;;;;;4983501;28;20216;-87
2023/02/20 03:51:18;;;;;;;5.20;4.80;;;;;;;;;;5009034;28;20220;-88
2023/02/20 03:53:59;;;;;;;4.83;4.43;;;;;;;;;;4990800;28;20625;-86
2023/02/20 03:56:26;;;;;;;5.83;5.33;;;;;;;;;;5004191;28;20220;-88
2023/02/20 03:58:54;;;;;;;5.60;5.10;;;;;;;;;;5004575;28;20746;-89
2023/02/20 04:01:20;;;;;;;6.17;5.57;;;;;;;;;;4996583;28;20220;-86
2023/02/20 04:03:47;;;;;;;5.60;5.13;;;;;;;;;;5004786;28;20683;-87
2023/02/20 04:06:15;;;;;;;6.17;5.67;;;;;;;;;;4989780;28;20236;-86
2023/02/20 04:09:01;;;;;;;5.20;4.70;;;;;;;;;;4992879;28;20212;-86
2023/02/20 04:11:31;;;;;;;5.37;4.87;;;;;;;;;;5021525;28;20220;-88
2023/02/20 04:13:57;;;;;;;5.77;5.27;;;;;;;;;;5005286;28;20216;-86
2023/02/20 04:16:23;;;;;;;6.50;5.87;;;;;;;;;;4987481;28;20689;-87
2023/02/20 04:18:51;;;;;;;5.77;5.23;;;;;;;;;;5000712;28;20854;-87
2023/02/20 04:21:25;;;;;;;6.73;6.13;;;;;;;;;;4988024;28;20278;-88
2023/02/20 04:24:01;;;;;;;5.77;5.30;;;;;;;;;;4992869;28;20697;-87
2023/02/20 04:26:31;;;;;;;6.30;5.70;;;;;;;;;;4992016;28;20262;-87
2023/02/20 04:29:00;;;;;;;9.20;6.53;;;;;;;;;;4997909;28;20209;-86
2023/02/20 04:31:29;;;;;;;7.03;6.40;;;;;;;;;;4988753;28;20295;-85
2023/02/20 04:33:54;;;;;;;6.90;6.30;;;;;;;;;;5000297;28;20228;-88
2023/02/20 04:36:22;;;;;;;7.10;6.40;;;;;;;;;;4983859;28;20331;-86
2023/02/20 04:38:51;;;;;;;7.30;6.67;;;;;;;;;;4983975;28;20643;-85
2023/02/20 04:41:21;;;;;;;7.93;6.70;;;;;;;;;;4983717;28;20962;-85
2023/02/20 04:44:29;;;;;;;6.97;6.27;;;;;;;;;;4980145;28;20601;-87
2023/02/20 04:46:38;;;;;;;7.63;6.87;;;;;;;;;;4999505;28;20247;-86
2023/02/20 04:49:09;;;;;;;8.33;6.73;;;;;;;;;;4988616;28;20685;-87
2023/02/20 04:51:35;;;;;;;8.70;7.53;;;;;;;;;;4986591;28;20230;-87
2023/02/20 04:54:00;;;;;;;8.00;7.20;;;;;;;;;;5001175;28;20262;-85
2023/02/20 04:56:29;;;;;;;8.47;7.43;;;;;;;;;;4999205;28;20287;-86
2023/02/20 04:58:55;;;;;;;8.07;7.27;;;;;;;;;;5001236;28;20291;-86
2023/02/20 05:01:22;;;;;;;8.30;7.60;;;;;;;;;;4986101;28;20215;-87
2023/02/20 05:03:48;;;;;;;9.80;6.93;;;;;;;;;;4972554;28;20306;-87
2023/02/20 05:06:13;;;;;;;10.63;8.00;;;;;;;;;;4991384;28;20286;-85
2023/02/20 05:08:39;;;;;;;10.40;7.97;;;;;;;;;;4984378;28;20220;-87
2023/02/20 05:11:04;;;;;;;7.97;7.27;;;;;;;;;;4989718;28;20220;-88
2023/02/20 05:13:30;;;;;;;8.97;8.07;;;;;;;;;;4989342;28;20223;-84
2023/02/20 05:15:56;;;;;;;8.53;7.73;;;;;;;;;;5014712;28;20293;-88
2023/02/20 05:18:27;;;;;;;8.30;7.50;;;;;;;;;;5008022;28;20310;-89
2023/02/20 05:23:40;;;;;;;9.23;8.23;;;;;;;;;;5029929;28;20231;-89
2023/02/20 05:26:09;;;;;;;8.87;7.50;;;;;;;;;;4998029;28;20600;-89
2023/02/20 05:28:35;;;;;;;8.37;7.50;;;;;;;;;;5001088;28;20227;-88
2023/02/20 05:31:00;;;;;;;9.17;7.70;;;;;;;;;;5002904;28;20285;-90
2023/02/20 05:33:29;;;;;;;9.73;8.30;;;;;;;;;;4982402;28;20220;-89
2023/02/20 05:35:54;;;;;;;8.33;7.43;;;;;;;;;;4975942;28;20220;-89
2023/02/20 05:38:24;;;;;;;9.60;8.03;;;;;;;;;;4984991;28;20224;-87
2023/02/20 05:40:52;;;;;;;8.60;7.80;;;;;;;;;;5002418;28;20227;-89
2023/02/20 05:43:18;;;;;;;8.63;7.83;;;;;;;;;;5014445;28;20305;-88
2023/02/20 05:45:46;;;;;;;8.90;7.97;;;;;;;;;;5002443;28;20753;-88
2023/02/20 05:48:14;;;;;;;10.83;8.57;;;;;;;;;;5000435;28;20242;-86
2023/02/20 05:50:42;;;;;;;10.60;7.93;;;;;;;;;;4986454;28;20680;-87
2023/02/20 05:53:15;;;;;;;9.80;8.80;;;;;;;;;;4999751;28;20231;-89
2023/02/20 05:55:44;;;;;;;9.47;8.23;;;;;;;;;;5006793;28;20232;-87
2023/02/20 05:58:12;;;;;;;8.80;7.90;;;;;;;;;;5001542;28;20231;-86
2023/02/20 06:00:38;;;;;;;9.60;8.47;;;;;;;;;;5008696;28;20278;-87
2023/02/20 06:03:07;;;;;;;8.50;7.70;;;;;;;;;;4998126;28;20216;-86
2023/02/20 06:05:34;;;;;;;8.47;7.67;;;;;;;;;;4999578;28;20624;-88
2023/02/20 06:08:00;;;;;;;11.07;8.17;;;;;;;;;;5017140;28;20279;-87
2023/02/20 06:10:26;;;;;;;9.40;8.50;;;;;;;;;;5016511;28;20223;-89
2023/02/20 06:12:52;;;;;;;11.67;8.40;;;;;;;;;;4998154;28;20225;-84
2023/02/20 06:15:17;;;;;;;9.53;8.53;;;;;;;;;;4998755;28;20220;-86
2023/02/20 06:17:45;;;;;;;9.77;8.30;;;;;;;;;;5011044;28;20226;-88
2023/02/20 06:20:10;;;;;;;9.63;8.53;;;;;;;;;;4998913;28;20228;-87
2023/02/20 06:22:41;;;;;;;9.20;8.07;;;;;;;;;;5001118;28;20220;-87
2023/02/20 06:25:11;;;;;;;8.93;7.90;;;;;;;;;;5002617;28;20576;-87
2023/02/20 06:27:42;;;;;;;10.60;8.60;;;;;;;;;;4988801;28;20690;-86
2023/02/20 06:30:10;;;;;;;10.13;8.47;;;;;;;;;;5004980;28;20627;-87
2023/02/20 06:32:36;;;;;;;11.07;8.57;;;;;;;;;;4986023;28;20359;-88
2023/02/20 06:35:01;;;;;;;12.00;7.93;;;;;;;;;;4987923;28;20217;-87
2023/02/20 06:37:29;;;;;;;10.67;8.50;;;;;;;;;;4966780;28;20235;-84
2023/02/20 06:39:55;;;;;;;9.07;8.00;;;;;;;;;;5012639;28;20607;-87
2023/02/20 06:42:20;;;;;;;12.60;8.57;;;;;;;;;;5004588;28;20277;-88
2023/02/20 06:44:46;;;;;;;9.43;7.90;;;;;;;;;;5000966;28;20692;-86
2023/02/20 06:47:11;;;;;;;9.83;8.10;;;;;;;;;;4991002;28;20257;-85
2023/02/20 06:49:40;;;;;;;9.13;8.23;;;;;;;;;;4988699;28;20759;-86
2023/02/20 06:52:06;;;;;;;10.53;8.23;;;;;;;;;;4986792;28;20212;-86
2023/02/20 06:54:35;;;;;;;9.13;8.23;;;;;;;;;;5001181;28;20224;-87
2023/02/20 06:57:03;;;;;;;9.10;8.20;;;;;;;;;;5017987;28;20243;-87
2023/02/20 06:59:31;;;;;;;10.57;8.77;;;;;;;;;;4986638;28;20226;-85
2023/02/20 07:01:59;;;;;;;12.03;8.67;;;;;;;;;;4997286;28;20225;-88
2023/02/20 07:04:25;;;;;;;9.07;8.27;;;;;;;;;;5016322;28;20290;-88
2023/02/20 07:06:53;;;;;;;11.00;7.80;;;;;;;;;;4999814;28;20247;-88
2023/02/20 07:09:21;;;;;;;10.50;8.43;;;;;;;;;;5006310;28;20281;-85
2023/02/20 07:11:49;;;;;;;10.53;8.10;;;;;;;;;;4983589;28;20269;-88
2023/02/20 07:14:17;;;;;;;11.03;8.47;;;;;;;;;;4970236;28;20228;-87
2023/02/20 07:16:42;;;;;;;10.20;8.50;;;;;;;;;;4983300;28;20227;-87
2023/02/20 07:19:10;;;;;;;9.70;8.70;;;;;;;;;;4998847;28;20220;-87
2023/02/20 07:21:38;;;;;;;11.03;9.20;;;;;;;;;;4987407;28;20274;-88
2023/02/20 07:24:06;;;;;;;10.47;8.97;;;;;;;;;;4984347;28;20888;-88
2023/02/20 07:26:38;;;;;;;9.97;9.00;;;;;;;;;;5020472;28;20295;-88
2023/02/20 07:29:04;;;;;;;9.87;8.90;;;;;;;;;;4982827;28;20319;-88
2023/02/20 07:31:33;;;;;;;9.73;8.73;;;;;;;;;;4985576;28;20236;-86
2023/02/20 07:33:58;;;;;;;11.40;9.60;;;;;;;;;;4990778;28;20212;-87
2023/02/20 07:36:26;;;;;;;12.90;9.50;;;;;;;;;;5000136;28;20266;-86
2023/02/20 07:38:56;;;;;;;11.37;9.57;;;;;;;;;;4985165;28;20224;-88
2023/02/20 07:41:28;;;;;;;12.63;9.57;;;;;;;;;;4981523;28;20224;-86
2023/02/20 07:43:54;;;;;;;10.57;9.57;;;;;;;;;;5018768;28;20804;-88
2023/02/20 07:46:22;;;;;;;11.50;10.40;;;;;;;;;;4998982;28;20229;-88
2023/02/20 07:48:48;;;;;;;10.90;9.90;;;;;;;;;;4997058;28;20671;-87
2023/02/20 07:51:13;;;;;;;11.50;10.30;;;;;;;;;;4991441;28;20232;-88
2023/02/20 07:53:39;;;;;;;14.17;10.73;;;;;;;;;;5002406;28;20752;-84
2023/02/20 07:56:12;;;;;;;12.43;11.13;;;;;;;;;;4971396;28;20314;-87
2023/02/20 07:58:40;;;;;;;13.10;10.97;;;;;;;;;;5001251;28;20219;-88
2023/02/20 08:01:05;;;;;;;11.73;10.33;;;;;;;;;;5012395;28;20239;-86
2023/02/20 08:03:33;;;;;;;13.60;12.03;;;;;;;;;;4988301;28;20216;-87
2023/02/20 08:05:59;;;;;;;14.03;12.60;;;;;;;;;;4999787;28;20286;-86
2023/02/20 08:08:27;;;;;;;12.17;11.00;;;;;;;;;;4999905;28;20212;-85
2023/02/20 08:10:53;;;;;;;13.10;11.67;;;;;;;;;;4985135;28;20968;-88
2023/02/20 08:13:19;;;;;;;13.50;11.67;;;;;;;;;;4975531;28;20212;-87
2023/02/20 08:15:46;;;;;;;14.40;11.83;;;;;;;;;;4987255;28;20801;-86
2023/02/20 08:18:13;;;;;;;14.10;12.70;;;;;;;;;;4987358;28;20609;-87
2023/02/20 08:20:40;;;;;;;15.33;13.30;;;;;;;;;;4997466;28;20204;-87
2023/02/20 08:23:27;;;;;;;14.47;13.07;;;;;;;;;;4998612;28;20232;-86
2023/02/20 08:25:55;;;;;;;14.07;12.67;;;;;;;;;;5021058;28;20227;-85
2023/02/20 08:28:20;;;;;;;15.47;13.97;;;;;;;;;;5004555;28;20247;-87
2023/02/20 08:30:46;;;;;;;14.93;13.60;;;;;;;;;;4998511;28;20247;-86
2023/02/20 08:33:14;;;;;;;17.50;14.37;;;;;;;;;;5006290;28;20250;-85
2023/02/20 08:35:40;;;;;;;15.63;14.00;;;;;;;;;;4999634;28;20232;-87
2023/02/20 08:38:07;;;;;;;16.30;13.60;;;;;;;;;;4980013;28;20626;-86
2023/02/20 08:40:37;;;;;;;15.97;14.27;;;;;;;;;;4986406;28;20216;-85
2023/02/20 08:43:03;;;;;;;16.47;14.77;;;;;;;;;;5006650;28;20216;-83
2023/02/20 08:45:28;;;;;;;20.47;16.63;;;;;;;;;;4999582;28;20299;-86
2023/02/20 08:48:03;;;;;;;18.07;16.27;;;;;;;;;;5001992;28;20213;-85
2023/02/20 08:50:29;;;;;;;30.17;24.43;;;;;;;;;;5023141;28;20213;-85
2023/02/20 08:52:54;;;;;;;29.40;26.20;;;;;;;;;;5020275;28;20211;-87
2023/02/20 08:55:20;;;;;;;18.83;16.93;;;;;;;;;;5020993;28;20268;-87
2023/02/20 08:57:45;;;;;;;19.90;17.80;;;;;;;;;;5004917;28;20272;-84
2023/02/20 09:00:13;;;;;;;19.70;17.70;;;;;;;;;;5021220;28;20307;-84
2023/02/20 09:02:39;;;;;;;19.43;17.53;;;;;;;;;;5006932;28;20215;-86
2023/02/20 09:05:07;;;;;;;21.17;18.20;;;;;;;;;;5021470;28;20236;-88
2023/02/20 09:07:35;;;;;;;18.17;16.37;;;;;;;;;;5021628;28;20204;-88
2023/02/20 09:10:01;;;;;;;18.73;16.80;;;;;;;;;;5026655;28;20205;-86
2023/02/20 09:12:26;;;;;;;19.03;17.13;;;;;;;;;;5015810;28;20289;-85
2023/02/20 09:14:52;;;;;;;19.83;17.20;;;;;;;;;;5022577;28;20310;-89
2023/02/20 09:17:18;;;;;;;19.40;17.50;;;;;;;;;;5021881;28;20208;-85
2023/02/20 09:19:44;;;;;;;22.07;18.73;;;;;;;;;;5020657;28;20213;-86
2023/02/20 09:22:12;;;;;;;21.40;18.57;;;;;;;;;;5006014;28;20877;-86
2023/02/20 09:24:38;;;;;;;23.10;18.60;;;;;;;;;;4975630;28;20212;-86
2023/02/20 09:27:06;;;;;;;26.13;18.97;;;;;;;;;;4988925;28;20774;-86
2023/02/20 09:29:37;;;;;;;20.70;18.67;;;;;;;;;;5022461;28;20744;-85
2023/02/20 09:32:03;;;;;;;18.83;16.83;;;;;;;;;;5000071;28;20255;-87
2023/02/20 09:34:29;;;;;;;18.47;16.53;;;;;;;;;;5011049;28;20243;-85
2023/02/20 09:36:57;;;;;;;19.90;17.87;;;;;;;;;;4992336;28;20217;-85
2023/02/20 09:39:27;;;;;;;20.57;18.67;;;;;;;;;;4986604;28;20216;-85
2023/02/20 09:42:15;;;;;;;22.20;18.90;;;;;;;;;;4990942;28;20689;-87
2023/02/20 09:44:51;;;;;;;20.03;16.90;;;;;;;;;;5031637;28;20525;-84
2023/02/20 09:47:22;;;;;;;20.60;18.47;;;;;;;;;;5010914;28;20231;-86
2023/02/20 09:49:47;;;;;;;23.03;18.73;;;;;;;;;;5012418;28;20685;-87
2023/02/20 09:52:16;;;;;;;20.60;18.50;;;;;;;;;;4989249;28;20289;-87
2023/02/20 09:54:45;;;;;;;22.13;19.47;;;;;;;;;;4990196;28;20303;-86
2023/02/20 09:57:15;;;;;;;24.23;18.67;;;;;;;;;;4992750;28;20233;-87
2023/02/20 09:59:47;;;;;;;21.27;18.57;;;;;;;;;;4996785;28;20216;-85
2023/02/20 10:02:19;;;;;;;22.93;17.57;;;;;;;;;;4999711;28;20240;-86
2023/02/20 10:04:47;;;;;;;22.07;19.70;;;;;;;;;;5019566;28;20228;-84
2023/02/20 10:07:31;;;;;;;24.17;20.47;;;;;;;;;;5008616;28;20227;-86
2023/02/20 10:09:58;;;;;;;20.97;18.77;;;;;;;;;;5009860;28;20270;-88
2023/02/20 10:12:40;;;;;;;21.23;18.97;;;;;;;;;;5034711;28;20331;-83
2023/02/20 10:15:19;;;;;;;23.57;19.60;;;;;;;;;;5012089;28;20217;-87
2023/02/20 10:17:48;;;;;;;23.63;21.13;;;;;;;;;;5015486;28;20219;-86
2023/02/20 10:20:26;;;;;;;23.57;20.60;;;;;;;;;;5029599;28;20307;-88
2023/02/20 10:23:12;;;;;;;21.90;19.33;;;;;;;;;;4984568;28;20283;-88
2023/02/20 10:25:42;;;;;;;23.30;20.53;;;;;;;;;;5016196;28;20232;-88
2023/02/20 10:28:14;;;;;;;21.47;19.27;;;;;;;;;;5010158;28;20577;-87
2023/02/20 10:30:46;;;;;;;27.07;19.43;;;;;;;;;;5018722;28;20692;-89
2023/02/20 10:33:24;;;;;;;23.43;19.23;;;;;;;;;;5020156;28;20246;-86
2023/02/20 10:36:00;;;;;;;21.73;19.20;;;;;;;;;;5040719;28;20250;-90
2023/02/20 10:38:30;;;;;;;20.50;18.37;;;;;;;;;;5003877;28;20204;-86
2023/02/20 10:41:12;;;;;;;24.23;20.03;;;;;;;;;;4985990;28;20246;-83
2023/02/20 10:43:54;;;;;;;22.23;19.83;;;;;;;;;;4986334;28;20308;-87
2023/02/20 10:46:33;;;;;;;22.93;19.43;;;;;;;;;;4998802;28;20252;-86
2023/02/20 10:49:01;;;;;;;21.03;18.60;;;;;;;;;;4988506;28;20250;-87
2023/02/20 10:51:32;;;;;;;22.00;18.77;;;;;;;;;;4997582;28;20216;-88
2023/02/20 10:54:06;;;;;;;22.27;19.23;;;;;;;;;;5009550;28;20231;-87
2023/02/20 10:56:40;;;;;;;22.13;18.23;;;;;;;;;;4989983;28;20227;-89
2023/02/20 10:59:10;;;;;;;24.60;19.40;;;;;;;;;;4997798;28;20235;-88
2023/02/20 11:01:38;;;;;;;27.00;19.43;;;;;;;;;;5014979;28;20208;-86
2023/02/20 11:04:24;;;;;;;22.63;19.00;;;;;;;;;;5001185;28;20717;-87
2023/02/20 11:06:58;;;;;;;20.27;18.03;;;;;;;;;;5001462;28;20239;-87
2023/02/20 11:09:24;;;;;;;20.97;18.73;;;;;;;;;;5001802;28;20270;-85
2023/02/20 11:11:50;;;;;;;19.77;17.63;;;;;;;;;;5012086;28;20287;-85
2023/02/20 11:14:22;;;;;;;21.87;18.73;;;;;;;;;;5009698;28;20235;-89
2023/02/20 11:17:03;;;;;;;24.10;19.40;;;;;;;;;;5002386;28;20712;-84
2023/02/20 11:19:40;;;;;;;18.87;16.93;;;;;;;;;;4976054;28;20219;-86
2023/02/20 11:22:05;;;;;;;22.03;18.47;;;;;;;;;;4993342;28;20215;-86
2023/02/20 11:24:41;;;;;;;17.87;15.90;;;;;;;;;;4975323;28;20254;-87
2023/02/20 11:27:19;;;;;;;20.37;18.23;;;;;;;;;;4995627;28;20219;-84
2023/02/20 11:29:53;;;;;;;19.57;17.13;;;;;;;;;;5001734;28;20224;-87
2023/02/20 11:32:28;;;;;;;22.90;17.33;;;;;;;;;;5002501;28;20346;-87
2023/02/20 11:35:18;;;;;;;20.87;17.67;;;;;;;;;;5016667;28;20303;-85
2023/02/20 11:37:49;;;;;;;19.30;17.30;;;;;;;;;;4998690;28;20228;-86
2023/02/20 11:40:16;;;;;;;21.83;16.30;;;;;;;;;;4999850;28;20236;-89
2023/02/20 11:42:44;;;;;;;22.83;18.03;;;;;;;;;;4984793;28;20236;-88
2023/02/20 11:45:12;;;;;;;20.90;16.20;;;;;;;;;;4993190;28;20232;-85
2023/02/20 11:47:38;;;;;;;19.43;16.93;;;;;;;;;;5000416;28;20224;-87
2023/02/20 11:50:14;;;;;;;20.17;16.67;;;;;;;;;;4998182;28;20243;-84
2023/02/20 11:53:01;;;;;;;17.20;15.40;;;;;;;;;;4996506;28;20240;-86
2023/02/20 11:55:29;;;;;;;20.50;15.90;;;;;;;;;;5017400;28;20232;-87
2023/02/20 11:57:57;;;;;;;17.43;15.50;;;;;;;;;;4988123;28;20231;-89
2023/02/20 12:00:26;;;;;;;16.73;15.07;;;;;;;;;;5008657;28;20224;-87
2023/02/20 12:03:05;;;;;;;17.37;15.53;;;;;;;;;;5033972;28;20331;-88
2023/02/20 12:05:40;;;;;;;17.03;15.33;;;;;;;;;;5006578;28;20228;-87
2023/02/20 12:08:27;;;;;;;17.03;15.27;;;;;;;;;;5015577;28;20216;-86
2023/02/20 12:10:53;;;;;;;16.33;13.73;;;;;;;;;;5015300;28;20234;-87
2023/02/20 12:13:19;;;;;;;14.47;13.03;;;;;;;;;;4998195;28;20220;-87
2023/02/20 12:15:53;;;;;;;15.03;13.30;;;;;;;;;;5016842;28;20225;-85
2023/02/20 12:18:35;;;;;;;13.80;12.40;;;;;;;;;;4982541;28;20220;-85
2023/02/20 12:21:04;;;;;;;11.57;10.37;;;;;;;;;;5012514;28;20220;-87
2023/02/20 12:23:35;;;;;;;16.83;12.40;;;;;;;;;;5017748;28;20246;-87
2023/02/20 12:26:20;;;;;;;15.90;13.67;;;;;;;;;;5019054;28;20758;-87
2023/02/20 12:29:19;;;;;;;14.53;12.57;;;;;;;;;;5029007;28;20224;-87
2023/02/20 12:32:14;;;;;;;12.27;11.07;;;;;;;;;;5030113;28;20247;-83
2023/02/20 12:35:03;;;;;;;12.90;11.60;;;;;;;;;;5009721;28;20219;-87
2023/02/20 12:37:47;;;;;;;14.10;12.50;;;;;;;;;;4998814;28;20389;-87
2023/02/20 12:40:28;;;;;;;12.03;10.63;;;;;;;;;;5017309;28;20297;-85
2023/02/20 12:43:23;;;;;;;11.97;10.77;;;;;;;;;;5013366;28;20224;-87
2023/02/20 12:45:59;;;;;;;12.70;10.73;;;;;;;;;;4994989;28;20621;-88
2023/02/20 12:49:14;;;;;;;;;;;;;;;;;;;;;
2023/02/20 12:52:54;;;;;;;;;;;;;;;;;;;;;
2023/02/20 12:56:14;;;;;;;13.87;11.20;;;;;;;;;;4882685;29;20241;-88
2023/02/20 12:59:17;;;;;;;;;;;;;;;;;;;;;
2023/02/20 13:02:41;;;;;;;;;;;;;;;;;;;;;
2023/02/20 13:06:14;;;;;;;;;;;;;;;;;;;;;
2023/02/20 13:09:30;;;;;;;12.03;10.93;;;;;;;;;;4986727;28;20227;-88
2023/02/20 13:12:10;;;;;;;12.80;11.47;;;;;;;;;;5003887;28;20287;-89
2023/02/20 13:19:03;;;;;;;11.97;10.83;;;;;;;;;;4981767;28;20560;-86
2023/02/20 13:22:13;;;;;;;9.30;8.40;;;;;;;;;;5006097;28;20266;-87
2023/02/20 13:29:13;;;;;;;8.73;7.90;;;;;;;;;;4970301;28;20276;-86
2023/02/20 13:32:28;;;;;;;9.40;8.50;;;;;;;;;;4964758;28;20260;-87
2023/02/20 13:39:07;;;;;;;8.40;7.60;;;;;;;;;;4899150;29;20243;-89
2023/02/20 13:45:40;;;;;;;8.50;7.70;;;;;;;;;;4934624;28;20702;-87
2023/02/20 13:51:37;;;;;;;10.13;8.03;;;;;;;;;;5002956;28;20287;-86
2023/02/20 13:55:18;;;;;;;10.23;8.80;;;;;;;;;;4985655;28;20296;-88
2023/02/20 13:58:40;;;;;;;;;;;;;;;;;;;;;
2023/02/20 14:02:14;;;;;;;;;;;;;;;;;;;;;
2023/02/20 14:05:24;;;;;;;10.30;8.47;;;;;;;;;;4985803;28;21443;-84
2023/02/20 14:08:42;;;;;;;;;;;;;;;;;;;;;
2023/02/20 14:11:28;;;;;;;8.70;7.77;;;;;;;;;;4980607;28;20244;-89
2023/02/20 14:14:50;;;;;;;;;;;;;;;;;;;;;
2023/02/20 14:17:20;;;;;;;9.43;6.93;;;;;;;;;;4989388;28;20236;-86
2023/02/20 14:19:59;;;;;;;7.07;6.37;;;;;;;;;;5012605;28;20234;-85
2023/02/20 14:22:37;;;;;;;7.97;7.27;;;;;;;;;;5003453;28;20242;-85
2023/02/20 14:25:19;;;;;;;8.90;8.07;;;;;;;;;;4990992;28;20234;-87
2023/02/20 14:27:52;;;;;;;10.73;7.10;;;;;;;;;;5006959;28;20306;-86
2023/02/20 14:30:24;;;;;;;8.20;7.00;;;;;;;;;;4994596;28;20216;-84
2023/02/20 14:32:55;;;;;;;9.57;8.53;;;;;;;;;;5008551;28;20220;-85
2023/02/20 14:36:02;;;;;;;8.20;7.13;;;;;;;;;;4998904;28;20227;-86
2023/02/20 14:38:30;;;;;;;7.73;6.73;;;;;;;;;;4991367;28;20219;-83
2023/02/20 14:41:01;;;;;;;6.60;6.10;;;;;;;;;;4998803;28;20216;-86
2023/02/20 14:43:33;;;;;;;7.10;6.40;;;;;;;;;;4994833;28;20223;-84
2023/02/20 14:46:27;;;;;;;9.30;6.43;;;;;;;;;;4989028;28;20229;-85
2023/02/20 14:49:25;;;;;;;7.90;6.50;;;;;;;;;;4997150;28;22676;-87
2023/02/20 14:51:51;;;;;;;7.83;6.73;;;;;;;;;;4971859;28;20302;-88
2023/02/20 14:54:22;;;;;;;8.63;7.83;;;;;;;;;;5027836;28;20223;-87
2023/02/20 14:56:54;;;;;;;9.40;7.90;;;;;;;;;;5004187;28;20380;-87
2023/02/20 14:59:35;;;;;;;8.33;7.43;;;;;;;;;;5007800;28;20224;-86
2023/02/20 15:02:15;;;;;;;8.53;7.20;;;;;;;;;;5008523;28;20226;-86
2023/02/20 15:04:47;;;;;;;7.37;6.67;;;;;;;;;;5007680;28;20247;-86
2023/02/20 15:07:14;;;;;;;7.17;6.57;;;;;;;;;;5026673;28;20225;-87
2023/02/20 15:09:42;;;;;;;7.37;6.57;;;;;;;;;;5006158;28;20579;-85
2023/02/20 15:12:30;;;;;;;8.07;7.27;;;;;;;;;;5000303;28;20335;-84
2023/02/20 15:15:02;;;;;;;9.33;8.23;;;;;;;;;;4986812;28;20217;-85
2023/02/20 15:17:30;;;;;;;8.70;7.80;;;;;;;;;;5001946;28;20224;-89
2023/02/20 15:19:57;;;;;;;8.53;7.67;;;;;;;;;;5008810;28;20216;-87
2023/02/20 15:22:40;;;;;;;8.43;7.63;;;;;;;;;;4975577;28;20223;-84
2023/02/20 15:25:29;;;;;;;8.13;7.33;;;;;;;;;;4988608;28;20232;-83
2023/02/20 15:28:12;;;;;;;13.20;9.67;;;;;;;;;;5002380;28;20298;-86
2023/02/20 15:31:10;;;;;;;9.47;7.33;;;;;;;;;;4987056;28;20216;-83
2023/02/20 15:33:41;;;;;;;8.73;7.93;;;;;;;;;;5035633;28;20227;-88
2023/02/20 15:36:14;;;;;;;10.60;9.50;;;;;;;;;;4988476;28;20239;-88
2023/02/20 15:38:42;;;;;;;9.27;8.40;;;;;;;;;;5000523;28;20247;-85
2023/02/20 15:41:10;;;;;;;10.53;9.50;;;;;;;;;;4956328;28;20223;-87
2023/02/20 15:43:41;;;;;;;8.87;8.07;;;;;;;;;;5030188;28;20286;-86
2023/02/20 15:46:13;;;;;;;10.47;9.37;;;;;;;;;;4988166;28;20331;-85
2023/02/20 15:48:43;;;;;;;8.63;7.83;;;;;;;;;;5012857;28;20216;-88
2023/02/20 15:51:20;;;;;;;10.73;8.63;;;;;;;;;;4980488;28;20235;-87
2023/02/20 15:53:48;;;;;;;9.47;8.47;;;;;;;;;;4985268;28;20308;-85
2023/02/20 15:56:14;;;;;;;9.67;8.83;;;;;;;;;;4997284;28;20225;-87